sensor_id;sensor_type;location;lat;lon;timestamp;P1;durP1;ratioP1;P2;durP2;ratioP2
60588;SDS011;46421;48.610;9.334;2023-04-15T00:00:41;4.55;;;1.50;;
60588;SDS011;46421;48.610;9.334;2023-04-15T00:03:07;3.13;;;1.30;;
60588;SDS011;46421;48.610;9.334;2023-04-15T00:05:32;7.07;;;1.80;;
60588;SDS011;46421;48.610;9.334;2023-04-15T00:07:59;3.55;;;1.48;;
60588;SDS011;46421;48.610;9.334;2023-04-15T00:10:25;4.60;;;1.52;;
60588;SDS011;46421;48.610;9.334;2023-04-15T00:12:51;5.38;;;1.80;;
60588;SDS011;46421;48.610;9.334;2023-04-15T00:15:17;5.60;;;1.55;;
60588;SDS011;46421;48.610;9.334;2023-04-15T00:17:43;3.65;;;1.58;;
60588;SDS011;46421;48.610;9.334;2023-04-15T00:20:09;5.45;;;1.60;;
60588;SDS011;46421;48.610;9.334;2023-04-15T00:22:35;4.63;;;1.58;;
60588;SDS011;46421;48.610;9.334;2023-04-15T00:25:00;7.38;;;1.67;;
60588;SDS011;46421;48.610;9.334;2023-04-15T00:27:26;5.55;;;1.63;;
60588;SDS011;46421;48.610;9.334;2023-04-15T00:29:51;5.28;;;1.42;;
60588;SDS011;46421;48.610;9.334;2023-04-15T00:32:17;5.05;;;1.40;;
60588;SDS011;46421;48.610;9.334;2023-04-15T00:34:42;8.13;;;1.50;;
60588;SDS011;46421;48.610;9.334;2023-04-15T00:37:08;5.35;;;1.42;;
60588;SDS011;46421;48.610;9.334;2023-04-15T00:39:34;5.32;;;1.30;;
60588;SDS011;46421;48.610;9.334;2023-04-15T00:42:00;5.25;;;1.38;;
60588;SDS011;46421;48.610;9.334;2023-04-15T00:44:26;3.35;;;1.20;;
60588;SDS011;46421;48.610;9.334;2023-04-15T00:46:52;6.28;;;1.35;;
60588;SDS011;46421;48.610;9.334;2023-04-15T00:49:18;6.88;;;1.80;;
60588;SDS011;46421;48.610;9.334;2023-04-15T00:51:44;3.83;;;1.25;;
60588;SDS011;46421;48.610;9.334;2023-04-15T00:54:09;3.78;;;1.40;;
60588;SDS011;46421;48.610;9.334;2023-04-15T00:56:36;4.18;;;1.60;;
60588;SDS011;46421;48.610;9.334;2023-04-15T00:59:03;3.20;;;1.50;;
60588;SDS011;46421;48.610;9.334;2023-04-15T01:01:33;5.43;;;1.60;;
60588;SDS011;46421;48.610;9.334;2023-04-15T01:03:59;4.05;;;1.65;;
60588;SDS011;46421;48.610;9.334;2023-04-15T01:06:25;5.07;;;1.13;;
60588;SDS011;46421;48.610;9.334;2023-04-15T01:08:55;3.10;;;1.20;;
60588;SDS011;46421;48.610;9.334;2023-04-15T01:11:24;4.25;;;1.60;;
60588;SDS011;46421;48.610;9.334;2023-04-15T01:13:51;4.20;;;1.52;;
60588;SDS011;46421;48.610;9.334;2023-04-15T01:16:18;4.00;;;0.95;;
60588;SDS011;46421;48.610;9.334;2023-04-15T01:18:44;3.60;;;1.08;;
60588;SDS011;46421;48.610;9.334;2023-04-15T01:21:10;7.05;;;1.75;;
60588;SDS011;46421;48.610;9.334;2023-04-15T01:23:36;4.47;;;1.23;;
60588;SDS011;46421;48.610;9.334;2023-04-15T01:26:03;4.57;;;1.70;;
60588;SDS011;46421;48.610;9.334;2023-04-15T01:28:30;3.30;;;1.42;;
60588;SDS011;46421;48.610;9.334;2023-04-15T01:31:12;5.70;;;1.25;;
60588;SDS011;46421;48.610;9.334;2023-04-15T01:33:39;5.25;;;1.45;;
60588;SDS011;46421;48.610;9.334;2023-04-15T01:36:07;3.75;;;1.30;;
60588;SDS011;46421;48.610;9.334;2023-04-15T01:38:34;3.70;;;1.60;;
60588;SDS011;46421;48.610;9.334;2023-04-15T01:41:00;3.20;;;1.40;;
60588;SDS011;46421;48.610;9.334;2023-04-15T01:43:28;4.97;;;1.25;;
60588;SDS011;46421;48.610;9.334;2023-04-15T01:45:53;6.70;;;1.70;;
60588;SDS011;46421;48.610;9.334;2023-04-15T01:48:19;3.80;;;1.45;;
60588;SDS011;46421;48.610;9.334;2023-04-15T01:50:45;5.45;;;1.48;;
60588;SDS011;46421;48.610;9.334;2023-04-15T01:53:11;3.60;;;1.38;;
60588;SDS011;46421;48.610;9.334;2023-04-15T01:55:36;3.85;;;1.30;;
60588;SDS011;46421;48.610;9.334;2023-04-15T01:58:02;3.95;;;1.70;;
60588;SDS011;46421;48.610;9.334;2023-04-15T02:00:28;5.38;;;1.50;;
60588;SDS011;46421;48.610;9.334;2023-04-15T02:02:54;4.22;;;1.40;;
60588;SDS011;46421;48.610;9.334;2023-04-15T02:05:20;3.05;;;1.23;;
60588;SDS011;46421;48.610;9.334;2023-04-15T02:07:45;4.40;;;1.57;;
60588;SDS011;46421;48.610;9.334;2023-04-15T02:10:10;9.07;;;1.67;;
60588;SDS011;46421;48.610;9.334;2023-04-15T02:12:40;4.00;;;1.48;;
60588;SDS011;46421;48.610;9.334;2023-04-15T02:15:06;5.57;;;1.25;;
60588;SDS011;46421;48.610;9.334;2023-04-15T02:17:33;3.78;;;1.42;;
60588;SDS011;46421;48.610;9.334;2023-04-15T02:19:59;3.85;;;1.50;;
60588;SDS011;46421;48.610;9.334;2023-04-15T02:22:25;4.18;;;1.25;;
60588;SDS011;46421;48.610;9.334;2023-04-15T02:24:50;4.57;;;1.00;;
60588;SDS011;46421;48.610;9.334;2023-04-15T02:27:16;4.93;;;1.47;;
60588;SDS011;46421;48.610;9.334;2023-04-15T02:29:43;3.97;;;1.10;;
60588;SDS011;46421;48.610;9.334;2023-04-15T02:32:09;4.88;;;1.40;;
60588;SDS011;46421;48.610;9.334;2023-04-15T02:34:35;5.43;;;1.90;;
60588;SDS011;46421;48.610;9.334;2023-04-15T02:37:03;2.72;;;1.20;;
60588;SDS011;46421;48.610;9.334;2023-04-15T02:39:29;4.85;;;1.30;;
60588;SDS011;46421;48.610;9.334;2023-04-15T02:41:54;3.50;;;1.35;;
60588;SDS011;46421;48.610;9.334;2023-04-15T02:44:23;4.32;;;1.45;;
60588;SDS011;46421;48.610;9.334;2023-04-15T02:46:48;3.50;;;1.33;;
60588;SDS011;46421;48.610;9.334;2023-04-15T02:49:16;5.30;;;1.40;;
60588;SDS011;46421;48.610;9.334;2023-04-15T02:51:42;6.03;;;1.30;;
60588;SDS011;46421;48.610;9.334;2023-04-15T02:54:11;5.35;;;1.15;;
60588;SDS011;46421;48.610;9.334;2023-04-15T02:56:37;6.35;;;1.50;;
60588;SDS011;46421;48.610;9.334;2023-04-15T02:59:02;3.90;;;1.33;;
60588;SDS011;46421;48.610;9.334;2023-04-15T03:01:28;3.45;;;1.50;;
60588;SDS011;46421;48.610;9.334;2023-04-15T03:03:54;5.72;;;1.42;;
60588;SDS011;46421;48.610;9.334;2023-04-15T03:06:19;4.90;;;1.45;;
60588;SDS011;46421;48.610;9.334;2023-04-15T03:08:45;1.67;;;0.65;;
60588;SDS011;46421;48.610;9.334;2023-04-15T03:11:10;5.05;;;1.35;;
60588;SDS011;46421;48.610;9.334;2023-04-15T03:13:36;6.40;;;1.55;;
60588;SDS011;46421;48.610;9.334;2023-04-15T03:16:03;4.93;;;1.58;;
60588;SDS011;46421;48.610;9.334;2023-04-15T03:18:29;4.53;;;1.52;;
60588;SDS011;46421;48.610;9.334;2023-04-15T03:20:55;4.07;;;1.20;;
60588;SDS011;46421;48.610;9.334;2023-04-15T03:23:20;6.60;;;1.40;;
60588;SDS011;46421;48.610;9.334;2023-04-15T03:25:49;5.00;;;1.10;;
60588;SDS011;46421;48.610;9.334;2023-04-15T03:28:14;6.38;;;1.45;;
60588;SDS011;46421;48.610;9.334;2023-04-15T03:30:39;4.53;;;1.55;;
60588;SDS011;46421;48.610;9.334;2023-04-15T03:33:05;5.00;;;1.40;;
60588;SDS011;46421;48.610;9.334;2023-04-15T03:35:31;7.13;;;1.70;;
60588;SDS011;46421;48.610;9.334;2023-04-15T03:37:56;3.53;;;1.23;;
60588;SDS011;46421;48.610;9.334;2023-04-15T03:40:22;4.10;;;1.55;;
60588;SDS011;46421;48.610;9.334;2023-04-15T03:42:47;3.53;;;0.98;;
60588;SDS011;46421;48.610;9.334;2023-04-15T03:45:12;3.55;;;1.13;;
60588;SDS011;46421;48.610;9.334;2023-04-15T03:47:38;2.22;;;0.93;;
60588;SDS011;46421;48.610;9.334;2023-04-15T03:50:04;3.23;;;1.10;;
60588;SDS011;46421;48.610;9.334;2023-04-15T03:52:29;3.20;;;1.27;;
60588;SDS011;46421;48.610;9.334;2023-04-15T03:54:55;3.85;;;1.42;;
60588;SDS011;46421;48.610;9.334;2023-04-15T03:57:21;9.30;;;1.88;;
60588;SDS011;46421;48.610;9.334;2023-04-15T03:59:46;2.38;;;1.05;;
60588;SDS011;46421;48.610;9.334;2023-04-15T04:02:12;6.00;;;1.50;;
60588;SDS011;46421;48.610;9.334;2023-04-15T04:04:37;4.97;;;1.40;;
60588;SDS011;46421;48.610;9.334;2023-04-15T04:07:03;5.73;;;1.50;;
60588;SDS011;46421;48.610;9.334;2023-04-15T04:09:28;4.20;;;1.70;;
60588;SDS011;46421;48.610;9.334;2023-04-15T04:11:54;3.97;;;1.55;;
60588;SDS011;46421;48.610;9.334;2023-04-15T04:14:20;2.70;;;1.08;;
60588;SDS011;46421;48.610;9.334;2023-04-15T04:16:50;4.43;;;1.40;;
60588;SDS011;46421;48.610;9.334;2023-04-15T04:19:16;3.95;;;1.27;;
60588;SDS011;46421;48.610;9.334;2023-04-15T04:21:43;5.18;;;2.03;;
60588;SDS011;46421;48.610;9.334;2023-04-15T04:24:09;4.70;;;1.60;;
60588;SDS011;46421;48.610;9.334;2023-04-15T04:26:35;3.40;;;1.40;;
60588;SDS011;46421;48.610;9.334;2023-04-15T04:29:00;3.80;;;1.48;;
60588;SDS011;46421;48.610;9.334;2023-04-15T04:31:25;4.40;;;1.50;;
60588;SDS011;46421;48.610;9.334;2023-04-15T04:33:51;6.68;;;1.80;;
60588;SDS011;46421;48.610;9.334;2023-04-15T04:36:16;4.00;;;1.57;;
60588;SDS011;46421;48.610;9.334;2023-04-15T04:38:42;4.05;;;1.40;;
60588;SDS011;46421;48.610;9.334;2023-04-15T04:41:07;4.32;;;1.60;;
60588;SDS011;46421;48.610;9.334;2023-04-15T04:43:33;5.03;;;1.75;;
60588;SDS011;46421;48.610;9.334;2023-04-15T04:45:58;4.25;;;1.20;;
60588;SDS011;46421;48.610;9.334;2023-04-15T04:48:24;2.85;;;1.27;;
60588;SDS011;46421;48.610;9.334;2023-04-15T04:50:53;5.38;;;1.27;;
60588;SDS011;46421;48.610;9.334;2023-04-15T04:53:18;6.43;;;1.30;;
60588;SDS011;46421;48.610;9.334;2023-04-15T04:55:44;4.32;;;1.45;;
60588;SDS011;46421;48.610;9.334;2023-04-15T04:58:09;5.25;;;1.52;;
60588;SDS011;46421;48.610;9.334;2023-04-15T05:00:35;4.72;;;1.45;;
60588;SDS011;46421;48.610;9.334;2023-04-15T05:03:02;3.55;;;1.17;;
60588;SDS011;46421;48.610;9.334;2023-04-15T05:05:28;3.88;;;1.55;;
60588;SDS011;46421;48.610;9.334;2023-04-15T05:07:53;4.05;;;1.42;;
60588;SDS011;46421;48.610;9.334;2023-04-15T05:10:19;4.65;;;1.60;;
60588;SDS011;46421;48.610;9.334;2023-04-15T05:12:44;4.47;;;1.30;;
60588;SDS011;46421;48.610;9.334;2023-04-15T05:15:10;3.90;;;1.45;;
60588;SDS011;46421;48.610;9.334;2023-04-15T05:17:36;5.22;;;1.52;;
60588;SDS011;46421;48.610;9.334;2023-04-15T05:20:01;4.10;;;1.43;;
60588;SDS011;46421;48.610;9.334;2023-04-15T05:22:27;5.05;;;1.60;;
60588;SDS011;46421;48.610;9.334;2023-04-15T05:24:53;5.20;;;1.58;;
60588;SDS011;46421;48.610;9.334;2023-04-15T05:27:19;3.45;;;1.35;;
60588;SDS011;46421;48.610;9.334;2023-04-15T05:29:44;3.85;;;1.35;;
60588;SDS011;46421;48.610;9.334;2023-04-15T05:32:12;4.80;;;1.30;;
60588;SDS011;46421;48.610;9.334;2023-04-15T05:34:38;4.95;;;1.40;;
60588;SDS011;46421;48.610;9.334;2023-04-15T05:37:03;4.20;;;1.47;;
60588;SDS011;46421;48.610;9.334;2023-04-15T05:39:29;6.95;;;1.80;;
60588;SDS011;46421;48.610;9.334;2023-04-15T05:41:56;2.78;;;1.30;;
60588;SDS011;46421;48.610;9.334;2023-04-15T05:44:22;4.85;;;1.40;;
60588;SDS011;46421;48.610;9.334;2023-04-15T05:46:47;3.53;;;1.27;;
60588;SDS011;46421;48.610;9.334;2023-04-15T05:49:13;4.97;;;1.88;;
60588;SDS011;46421;48.610;9.334;2023-04-15T05:51:38;3.50;;;1.27;;
60588;SDS011;46421;48.610;9.334;2023-04-15T05:54:04;5.68;;;1.70;;
60588;SDS011;46421;48.610;9.334;2023-04-15T05:56:29;3.00;;;1.13;;
60588;SDS011;46421;48.610;9.334;2023-04-15T05:58:55;4.22;;;1.52;;
60588;SDS011;46421;48.610;9.334;2023-04-15T06:01:21;8.57;;;1.93;;
60588;SDS011;46421;48.610;9.334;2023-04-15T06:03:46;4.40;;;1.50;;
60588;SDS011;46421;48.610;9.334;2023-04-15T06:06:12;3.25;;;1.25;;
60588;SDS011;46421;48.610;9.334;2023-04-15T06:08:38;4.57;;;1.30;;
60588;SDS011;46421;48.610;9.334;2023-04-15T06:11:06;4.63;;;1.48;;
60588;SDS011;46421;48.610;9.334;2023-04-15T06:13:31;5.20;;;1.70;;
60588;SDS011;46421;48.610;9.334;2023-04-15T06:15:57;4.70;;;1.70;;
60588;SDS011;46421;48.610;9.334;2023-04-15T06:18:24;3.45;;;1.40;;
60588;SDS011;46421;48.610;9.334;2023-04-15T06:20:50;3.83;;;1.33;;
60588;SDS011;46421;48.610;9.334;2023-04-15T06:23:15;3.45;;;1.58;;
60588;SDS011;46421;48.610;9.334;2023-04-15T06:25:41;5.18;;;1.63;;
60588;SDS011;46421;48.610;9.334;2023-04-15T06:28:06;4.20;;;1.35;;
60588;SDS011;46421;48.610;9.334;2023-04-15T06:30:31;5.78;;;1.77;;
60588;SDS011;46421;48.610;9.334;2023-04-15T06:32:57;4.60;;;1.73;;
60588;SDS011;46421;48.610;9.334;2023-04-15T06:35:22;5.03;;;1.48;;
60588;SDS011;46421;48.610;9.334;2023-04-15T06:37:48;5.95;;;1.60;;
60588;SDS011;46421;48.610;9.334;2023-04-15T06:40:13;4.63;;;1.57;;
60588;SDS011;46421;48.610;9.334;2023-04-15T06:42:39;5.70;;;1.70;;
60588;SDS011;46421;48.610;9.334;2023-04-15T06:45:04;5.70;;;2.00;;
60588;SDS011;46421;48.610;9.334;2023-04-15T06:47:30;5.10;;;1.42;;
60588;SDS011;46421;48.610;9.334;2023-04-15T06:49:56;4.95;;;1.65;;
60588;SDS011;46421;48.610;9.334;2023-04-15T06:52:21;4.13;;;1.70;;
60588;SDS011;46421;48.610;9.334;2023-04-15T06:54:47;5.50;;;1.40;;
60588;SDS011;46421;48.610;9.334;2023-04-15T06:57:12;6.57;;;1.70;;
60588;SDS011;46421;48.610;9.334;2023-04-15T06:59:37;6.17;;;1.60;;
60588;SDS011;46421;48.610;9.334;2023-04-15T07:02:03;5.25;;;2.15;;
60588;SDS011;46421;48.610;9.334;2023-04-15T07:04:28;3.88;;;1.55;;
60588;SDS011;46421;48.610;9.334;2023-04-15T07:06:54;4.00;;;1.50;;
60588;SDS011;46421;48.610;9.334;2023-04-15T07:09:20;3.67;;;1.40;;
60588;SDS011;46421;48.610;9.334;2023-04-15T07:11:46;4.47;;;1.63;;
60588;SDS011;46421;48.610;9.334;2023-04-15T07:14:11;4.63;;;1.60;;
60588;SDS011;46421;48.610;9.334;2023-04-15T07:16:37;4.00;;;1.63;;
60588;SDS011;46421;48.610;9.334;2023-04-15T07:19:02;4.00;;;1.60;;
60588;SDS011;46421;48.610;9.334;2023-04-15T07:21:28;4.72;;;1.58;;
60588;SDS011;46421;48.610;9.334;2023-04-15T07:23:53;7.53;;;1.95;;
60588;SDS011;46421;48.610;9.334;2023-04-15T07:26:19;4.78;;;1.88;;
60588;SDS011;46421;48.610;9.334;2023-04-15T07:28:44;4.22;;;1.70;;
60588;SDS011;46421;48.610;9.334;2023-04-15T07:31:11;5.35;;;1.92;;
60588;SDS011;46421;48.610;9.334;2023-04-15T07:33:36;6.32;;;1.85;;
60588;SDS011;46421;48.610;9.334;2023-04-15T07:36:02;5.20;;;2.35;;
60588;SDS011;46421;48.610;9.334;2023-04-15T07:38:27;4.15;;;1.48;;
60588;SDS011;46421;48.610;9.334;2023-04-15T07:40:53;5.97;;;1.77;;
60588;SDS011;46421;48.610;9.334;2023-04-15T07:43:19;6.05;;;1.70;;
60588;SDS011;46421;48.610;9.334;2023-04-15T07:45:46;6.82;;;1.65;;
60588;SDS011;46421;48.610;9.334;2023-04-15T07:48:11;7.60;;;1.58;;
60588;SDS011;46421;48.610;9.334;2023-04-15T07:50:36;4.60;;;1.58;;
60588;SDS011;46421;48.610;9.334;2023-04-15T07:53:02;3.50;;;1.25;;
60588;SDS011;46421;48.610;9.334;2023-04-15T07:55:27;4.95;;;1.60;;
60588;SDS011;46421;48.610;9.334;2023-04-15T07:57:55;5.05;;;1.50;;
60588;SDS011;46421;48.610;9.334;2023-04-15T08:00:21;6.53;;;1.80;;
60588;SDS011;46421;48.610;9.334;2023-04-15T08:02:46;5.13;;;1.73;;
60588;SDS011;46421;48.610;9.334;2023-04-15T08:05:12;5.22;;;1.52;;
60588;SDS011;46421;48.610;9.334;2023-04-15T08:07:38;4.63;;;1.65;;
60588;SDS011;46421;48.610;9.334;2023-04-15T08:10:05;4.45;;;1.50;;
60588;SDS011;46421;48.610;9.334;2023-04-15T08:12:31;6.07;;;1.90;;
60588;SDS011;46421;48.610;9.334;2023-04-15T08:14:56;6.90;;;1.83;;
60588;SDS011;46421;48.610;9.334;2023-04-15T08:17:22;5.28;;;1.63;;
60588;SDS011;46421;48.610;9.334;2023-04-15T08:19:48;5.10;;;1.85;;
60588;SDS011;46421;48.610;9.334;2023-04-15T08:22:13;6.18;;;1.48;;
60588;SDS011;46421;48.610;9.334;2023-04-15T08:24:39;4.55;;;1.55;;
60588;SDS011;46421;48.610;9.334;2023-04-15T08:27:05;7.28;;;1.60;;
60588;SDS011;46421;48.610;9.334;2023-04-15T08:29:32;5.00;;;1.50;;
60588;SDS011;46421;48.610;9.334;2023-04-15T08:32:01;5.15;;;1.42;;
60588;SDS011;46421;48.610;9.334;2023-04-15T08:34:27;7.40;;;1.90;;
60588;SDS011;46421;48.610;9.334;2023-04-15T08:36:53;3.88;;;1.70;;
60588;SDS011;46421;48.610;9.334;2023-04-15T08:39:19;5.97;;;2.08;;
60588;SDS011;46421;48.610;9.334;2023-04-15T08:41:46;4.07;;;1.58;;
60588;SDS011;46421;48.610;9.334;2023-04-15T08:44:14;5.90;;;1.83;;
60588;SDS011;46421;48.610;9.334;2023-04-15T08:46:40;4.50;;;1.55;;
60588;SDS011;46421;48.610;9.334;2023-04-15T08:49:08;6.00;;;1.83;;
60588;SDS011;46421;48.610;9.334;2023-04-15T08:51:41;5.57;;;1.42;;
60588;SDS011;46421;48.610;9.334;2023-04-15T08:54:07;4.50;;;1.80;;
60588;SDS011;46421;48.610;9.334;2023-04-15T08:56:33;4.57;;;1.90;;
60588;SDS011;46421;48.610;9.334;2023-04-15T08:59:01;4.22;;;1.90;;
60588;SDS011;46421;48.610;9.334;2023-04-15T09:03:53;6.90;;;1.98;;
60588;SDS011;46421;48.610;9.334;2023-04-15T09:06:21;5.03;;;1.60;;
60588;SDS011;46421;48.610;9.334;2023-04-15T09:08:47;5.10;;;1.58;;
60588;SDS011;46421;48.610;9.334;2023-04-15T09:11:13;5.60;;;1.70;;
60588;SDS011;46421;48.610;9.334;2023-04-15T09:13:38;5.57;;;1.83;;
60588;SDS011;46421;48.610;9.334;2023-04-15T09:16:04;3.97;;;1.60;;
60588;SDS011;46421;48.610;9.334;2023-04-15T09:18:31;3.38;;;1.58;;
60588;SDS011;46421;48.610;9.334;2023-04-15T09:21:05;5.15;;;2.50;;
60588;SDS011;46421;48.610;9.334;2023-04-15T09:23:33;4.72;;;1.60;;
60588;SDS011;46421;48.610;9.334;2023-04-15T09:26:02;4.22;;;1.60;;
60588;SDS011;46421;48.610;9.334;2023-04-15T09:28:31;4.50;;;1.65;;
60588;SDS011;46421;48.610;9.334;2023-04-15T09:30:57;4.88;;;1.80;;
60588;SDS011;46421;48.610;9.334;2023-04-15T09:33:24;4.15;;;1.98;;
60588;SDS011;46421;48.610;9.334;2023-04-15T09:35:58;5.13;;;1.80;;
60588;SDS011;46421;48.610;9.334;2023-04-15T09:38:28;4.65;;;1.60;;
60588;SDS011;46421;48.610;9.334;2023-04-15T09:40:55;4.10;;;1.50;;
60588;SDS011;46421;48.610;9.334;2023-04-15T09:43:22;4.47;;;1.90;;
60588;SDS011;46421;48.610;9.334;2023-04-15T09:46:00;4.20;;;1.70;;
60588;SDS011;46421;48.610;9.334;2023-04-15T09:48:26;3.80;;;1.55;;
60588;SDS011;46421;48.610;9.334;2023-04-15T09:50:52;5.00;;;1.60;;
60588;SDS011;46421;48.610;9.334;2023-04-15T09:53:21;4.57;;;1.50;;
60588;SDS011;46421;48.610;9.334;2023-04-15T09:55:52;4.65;;;1.80;;
60588;SDS011;46421;48.610;9.334;2023-04-15T09:58:23;5.32;;;1.60;;
60588;SDS011;46421;48.610;9.334;2023-04-15T10:00:51;5.13;;;1.60;;
60588;SDS011;46421;48.610;9.334;2023-04-15T10:03:20;5.85;;;1.50;;
60588;SDS011;46421;48.610;9.334;2023-04-15T10:05:48;3.88;;;1.55;;
60588;SDS011;46421;48.610;9.334;2023-04-15T10:08:25;4.45;;;1.80;;
60588;SDS011;46421;48.610;9.334;2023-04-15T10:10:52;4.35;;;1.50;;
60588;SDS011;46421;48.610;9.334;2023-04-15T10:13:19;3.60;;;1.48;;
60588;SDS011;46421;48.610;9.334;2023-04-15T10:15:51;5.63;;;1.70;;
60588;SDS011;46421;48.610;9.334;2023-04-15T10:18:22;4.30;;;1.50;;
60588;SDS011;46421;48.610;9.334;2023-04-15T10:20:50;4.47;;;1.20;;
60588;SDS011;46421;48.610;9.334;2023-04-15T10:23:20;3.70;;;1.40;;
60588;SDS011;46421;48.610;9.334;2023-04-15T10:25:48;5.72;;;1.70;;
60588;SDS011;46421;48.610;9.334;2023-04-15T10:28:14;5.00;;;1.58;;
60588;SDS011;46421;48.610;9.334;2023-04-15T10:30:40;5.18;;;1.75;;
60588;SDS011;46421;48.610;9.334;2023-04-15T10:33:10;5.95;;;1.52;;
60588;SDS011;46421;48.610;9.334;2023-04-15T10:35:36;4.70;;;1.65;;
60588;SDS011;46421;48.610;9.334;2023-04-15T10:38:30;4.55;;;1.70;;
60588;SDS011;46421;48.610;9.334;2023-04-15T10:44:00;4.00;;;1.50;;
60588;SDS011;46421;48.610;9.334;2023-04-15T10:46:40;3.50;;;1.30;;
60588;SDS011;46421;48.610;9.334;2023-04-15T10:49:13;4.03;;;1.35;;
60588;SDS011;46421;48.610;9.334;2023-04-15T10:51:45;4.22;;;1.38;;
60588;SDS011;46421;48.610;9.334;2023-04-15T10:54:36;4.38;;;1.50;;
60588;SDS011;46421;48.610;9.334;2023-04-15T10:57:07;7.20;;;1.80;;
60588;SDS011;46421;48.610;9.334;2023-04-15T11:05:27;4.32;;;1.30;;
60588;SDS011;46421;48.610;9.334;2023-04-15T11:08:05;4.68;;;1.30;;
60588;SDS011;46421;48.610;9.334;2023-04-15T11:12:58;4.32;;;1.40;;
60588;SDS011;46421;48.610;9.334;2023-04-15T11:15:32;4.03;;;1.23;;
60588;SDS011;46421;48.610;9.334;2023-04-15T11:20:38;3.55;;;1.25;;
60588;SDS011;46421;48.610;9.334;2023-04-15T11:23:11;3.45;;;1.63;;
60588;SDS011;46421;48.610;9.334;2023-04-15T11:25:38;6.70;;;1.50;;
60588;SDS011;46421;48.610;9.334;2023-04-15T11:28:04;4.00;;;1.33;;
60588;SDS011;46421;48.610;9.334;2023-04-15T11:30:33;3.08;;;1.02;;
60588;SDS011;46421;48.610;9.334;2023-04-15T11:33:10;3.70;;;1.20;;
60588;SDS011;46421;48.610;9.334;2023-04-15T11:35:40;4.95;;;1.40;;
60588;SDS011;46421;48.610;9.334;2023-04-15T11:38:10;3.83;;;1.30;;
60588;SDS011;46421;48.610;9.334;2023-04-15T11:40:39;4.07;;;1.58;;
60588;SDS011;46421;48.610;9.334;2023-04-15T11:45:57;5.00;;;1.50;;
60588;SDS011;46421;48.610;9.334;2023-04-15T11:48:29;4.50;;;1.70;;
60588;SDS011;46421;48.610;9.334;2023-04-15T11:51:00;4.45;;;1.67;;
60588;SDS011;46421;48.610;9.334;2023-04-15T11:56:21;3.95;;;1.77;;
60588;SDS011;46421;48.610;9.334;2023-04-15T11:58:51;5.30;;;1.73;;
60588;SDS011;46421;48.610;9.334;2023-04-15T12:01:18;5.03;;;1.33;;
60588;SDS011;46421;48.610;9.334;2023-04-15T12:03:47;4.93;;;1.70;;
60588;SDS011;46421;48.610;9.334;2023-04-15T12:11:32;4.03;;;1.58;;
60588;SDS011;46421;48.610;9.334;2023-04-15T12:14:07;4.53;;;1.70;;
60588;SDS011;46421;48.610;9.334;2023-04-15T12:16:39;6.28;;;2.47;;
60588;SDS011;46421;48.610;9.334;2023-04-15T12:19:14;5.03;;;2.10;;
60588;SDS011;46421;48.610;9.334;2023-04-15T12:21:51;6.53;;;1.80;;
60588;SDS011;46421;48.610;9.334;2023-04-15T12:24:21;4.28;;;1.77;;
60588;SDS011;46421;48.610;9.334;2023-04-15T12:26:48;6.15;;;2.30;;
60588;SDS011;46421;48.610;9.334;2023-04-15T12:29:16;5.05;;;1.92;;
60588;SDS011;46421;48.610;9.334;2023-04-15T12:31:51;3.58;;;1.60;;
60588;SDS011;46421;48.610;9.334;2023-04-15T12:34:28;4.75;;;1.80;;
60588;SDS011;46421;48.610;9.334;2023-04-15T12:37:02;4.68;;;1.60;;
60588;SDS011;46421;48.610;9.334;2023-04-15T12:39:30;6.88;;;1.92;;
60588;SDS011;46421;48.610;9.334;2023-04-15T12:41:58;6.03;;;2.50;;
60588;SDS011;46421;48.610;9.334;2023-04-15T12:44:24;5.88;;;2.25;;
60588;SDS011;46421;48.610;9.334;2023-04-15T12:46:50;5.07;;;2.25;;
60588;SDS011;46421;48.610;9.334;2023-04-15T12:49:17;6.22;;;2.08;;
60588;SDS011;46421;48.610;9.334;2023-04-15T12:51:47;7.43;;;2.80;;
60588;SDS011;46421;48.610;9.334;2023-04-15T12:54:13;9.02;;;2.83;;
60588;SDS011;46421;48.610;9.334;2023-04-15T12:56:38;4.32;;;1.77;;
60588;SDS011;46421;48.610;9.334;2023-04-15T12:59:04;5.63;;;2.17;;
60588;SDS011;46421;48.610;9.334;2023-04-15T13:01:29;4.50;;;2.00;;
60588;SDS011;46421;48.610;9.334;2023-04-15T13:03:55;4.53;;;1.98;;
60588;SDS011;46421;48.610;9.334;2023-04-15T13:06:20;7.45;;;2.30;;
60588;SDS011;46421;48.610;9.334;2023-04-15T13:08:45;6.30;;;2.40;;
60588;SDS011;46421;48.610;9.334;2023-04-15T13:11:11;5.95;;;2.22;;
60588;SDS011;46421;48.610;9.334;2023-04-15T13:13:36;7.35;;;2.65;;
60588;SDS011;46421;48.610;9.334;2023-04-15T13:16:02;6.15;;;2.47;;
60588;SDS011;46421;48.610;9.334;2023-04-15T13:18:27;4.82;;;2.00;;
60588;SDS011;46421;48.610;9.334;2023-04-15T13:20:55;6.30;;;2.00;;
60588;SDS011;46421;48.610;9.334;2023-04-15T13:23:20;5.40;;;1.95;;
60588;SDS011;46421;48.610;9.334;2023-04-15T13:25:45;4.55;;;2.03;;
60588;SDS011;46421;48.610;9.334;2023-04-15T13:28:11;4.33;;;2.10;;
60588;SDS011;46421;48.610;9.334;2023-04-15T13:30:37;5.20;;;2.05;;
60588;SDS011;46421;48.610;9.334;2023-04-15T13:33:03;4.85;;;1.92;;
60588;SDS011;46421;48.610;9.334;2023-04-15T13:35:30;4.90;;;2.00;;
60588;SDS011;46421;48.610;9.334;2023-04-15T13:37:58;4.60;;;2.15;;
60588;SDS011;46421;48.610;9.334;2023-04-15T13:40:24;4.80;;;1.83;;
60588;SDS011;46421;48.610;9.334;2023-04-15T13:42:50;3.75;;;1.80;;
60588;SDS011;46421;48.610;9.334;2023-04-15T13:45:16;4.22;;;1.95;;
60588;SDS011;46421;48.610;9.334;2023-04-15T13:47:41;3.65;;;1.48;;
60588;SDS011;46421;48.610;9.334;2023-04-15T13:50:06;4.72;;;1.70;;
60588;SDS011;46421;48.610;9.334;2023-04-15T13:52:32;3.72;;;1.60;;
60588;SDS011;46421;48.610;9.334;2023-04-15T13:55:01;4.50;;;1.70;;
60588;SDS011;46421;48.610;9.334;2023-04-15T13:57:27;3.53;;;1.58;;
60588;SDS011;46421;48.610;9.334;2023-04-15T13:59:53;3.90;;;1.52;;
60588;SDS011;46421;48.610;9.334;2023-04-15T14:02:19;4.30;;;1.60;;
60588;SDS011;46421;48.610;9.334;2023-04-15T14:07:11;3.27;;;1.33;;
60588;SDS011;46421;48.610;9.334;2023-04-15T14:09:36;4.65;;;1.40;;
60588;SDS011;46421;48.610;9.334;2023-04-15T14:12:02;4.13;;;1.60;;
60588;SDS011;46421;48.610;9.334;2023-04-15T14:14:27;3.20;;;1.23;;
60588;SDS011;46421;48.610;9.334;2023-04-15T14:16:54;2.20;;;1.05;;
60588;SDS011;46421;48.610;9.334;2023-04-15T14:19:23;4.88;;;1.63;;
60588;SDS011;46421;48.610;9.334;2023-04-15T14:21:48;3.50;;;1.23;;
60588;SDS011;46421;48.610;9.334;2023-04-15T14:24:14;3.25;;;1.15;;
60588;SDS011;46421;48.610;9.334;2023-04-15T14:26:39;4.43;;;1.70;;
60588;SDS011;46421;48.610;9.334;2023-04-15T14:29:04;4.47;;;1.23;;
60588;SDS011;46421;48.610;9.334;2023-04-15T14:31:30;3.35;;;1.08;;
60588;SDS011;46421;48.610;9.334;2023-04-15T14:33:55;2.33;;;0.88;;
60588;SDS011;46421;48.610;9.334;2023-04-15T14:36:21;3.00;;;0.80;;
60588;SDS011;46421;48.610;9.334;2023-04-15T14:38:46;2.03;;;1.00;;
60588;SDS011;46421;48.610;9.334;2023-04-15T14:41:11;3.17;;;0.88;;
60588;SDS011;46421;48.610;9.334;2023-04-15T14:43:37;3.75;;;1.08;;
60588;SDS011;46421;48.610;9.334;2023-04-15T14:46:03;3.83;;;1.08;;
60588;SDS011;46421;48.610;9.334;2023-04-15T14:48:29;5.20;;;1.52;;
60588;SDS011;46421;48.610;9.334;2023-04-15T14:50:55;3.17;;;0.93;;
60588;SDS011;46421;48.610;9.334;2023-04-15T14:53:21;3.05;;;0.70;;
60588;SDS011;46421;48.610;9.334;2023-04-15T14:55:47;3.15;;;0.80;;
60588;SDS011;46421;48.610;9.334;2023-04-15T14:58:12;1.80;;;0.70;;
60588;SDS011;46421;48.610;9.334;2023-04-15T15:00:38;3.90;;;0.77;;
60588;SDS011;46421;48.610;9.334;2023-04-15T15:03:06;2.50;;;0.70;;
60588;SDS011;46421;48.610;9.334;2023-04-15T15:05:40;1.90;;;0.70;;
60588;SDS011;46421;48.610;9.334;2023-04-15T15:08:07;1.67;;;0.70;;
60588;SDS011;46421;48.610;9.334;2023-04-15T15:10:33;3.00;;;0.73;;
60588;SDS011;46421;48.610;9.334;2023-04-15T15:12:59;1.27;;;0.68;;
60588;SDS011;46421;48.610;9.334;2023-04-15T15:15:26;1.20;;;0.52;;